Time;durP1;ratioP1;P1;durP2;ratioP2;P2;SDS_P1;SDS_P2;PMS_P1;PMS_P2;Temp;Humidity;BMP_temperature;BMP_pressure;BME280_temperature;BME280_humidity;BME280_pressure;Samples;Min_cycle;Max_cycle;Signal;HPM_P1;HPM_P2
2022/12/29 00:01:45;;;;;;;23.02;9.73;;;;;;;2.83;64.21;98532.78;4969810;28;21946;-71
2022/12/29 00:04:13;;;;;;;29.63;11.73;;;;;;;2.83;64.44;98520.06;4969900;28;20022;-70
2022/12/29 00:06:38;;;;;;;42.15;16.58;;;;;;;2.82;63.96;98514.88;4969259;28;20050;-70
2022/12/29 00:09:04;;;;;;;35.10;15.90;;;;;;;2.81;64.15;98503.25;4970256;28;20071;-70
2022/12/29 00:11:29;;;;;;;28.15;12.10;;;;;;;2.80;64.19;98500.75;4969456;28;20037;-70
2022/12/29 00:16:44;;;;;;;27.90;10.82;;;;;;;2.82;64.12;98501.34;4969791;28;20041;-71
2022/12/29 00:35:52;;;;;;;22.02;8.85;;;;;;;3.03;63.85;98478.13;4967848;28;20033;-71
2022/12/29 00:46:29;;;;;;;16.50;8.68;;;;;;;3.25;63.85;98461.94;4967222;28;20112;-69
2022/12/29 00:51:38;;;;;;;13.90;6.50;;;;;;;3.38;63.11;98451.81;4967243;28;20160;-70
2022/12/29 00:54:04;;;;;;;14.65;6.55;;;;;;;3.41;63.21;98448.63;4968826;28;20500;-69
2022/12/29 00:56:29;;;;;;;12.75;6.18;;;;;;;3.45;63.13;98460.59;4969081;28;20066;-70
2022/12/29 00:58:54;;;;;;;15.40;6.47;;;;;;;3.47;63.25;98453.00;4968946;28;20044;-70
2022/12/29 01:01:20;;;;;;;19.15;7.97;;;;;;;3.50;63.18;98452.50;4968089;28;20711;-69
2022/12/29 01:03:45;;;;;;;11.65;6.05;;;;;;;3.55;62.80;98457.22;4968960;28;20395;-69
2022/12/29 01:06:11;;;;;;;11.65;6.35;;;;;;;3.60;62.94;98459.16;4968878;28;20019;-70
2022/12/29 01:08:37;;;;;;;11.10;5.68;;;;;;;3.63;63.19;98462.22;4968704;28;20046;-70
2022/12/29 01:11:05;;;;;;;10.65;5.20;;;;;;;3.66;62.82;98472.56;4966963;28;20100;-69
2022/12/29 01:13:31;;;;;;;12.48;5.47;;;;;;;3.72;63.41;98479.66;4968413;28;20075;-70
2022/12/29 01:15:57;;;;;;;12.27;6.07;;;;;;;3.75;62.45;98480.22;4968431;28;20019;-69
2022/12/29 01:18:23;;;;;;;13.88;6.80;;;;;;;3.76;61.96;98488.13;4968436;28;20121;-69
2022/12/29 01:20:49;;;;;;;15.13;6.13;;;;;;;3.77;62.53;98503.34;4968306;28;20031;-69
2022/12/29 01:23:15;;;;;;;14.77;6.90;;;;;;;3.79;61.91;98500.38;4968293;28;20494;-71
2022/12/29 01:25:40;;;;;;;12.25;6.90;;;;;;;3.80;62.08;98504.72;4968433;28;20104;-70
2022/12/29 01:28:08;;;;;;;10.25;5.80;;;;;;;3.82;62.38;98498.00;4968740;28;20014;-69
2022/12/29 01:30:36;;;;;;;15.52;7.07;;;;;;;3.86;61.62;98484.72;4968164;28;20030;-69
2022/12/29 01:33:01;;;;;;;9.35;5.10;;;;;;;3.90;62.68;98485.03;4968619;28;20019;-68
2022/12/29 01:35:27;;;;;;;13.82;6.88;;;;;;;3.93;62.15;98481.81;4968507;28;20030;-69
2022/12/29 01:37:53;;;;;;;10.48;5.25;;;;;;;3.97;62.08;98480.25;4968457;28;20050;-73
2022/12/29 01:40:18;;;;;;;11.60;6.07;;;;;;;3.99;61.98;98486.25;4968214;28;20395;-68
2022/12/29 01:42:44;;;;;;;8.57;4.75;;;;;;;4.04;62.13;98485.50;4968708;28;20383;-69
2022/12/29 01:45:12;;;;;;;8.70;5.30;;;;;;;4.05;61.75;98490.66;4965969;28;20468;-69
2022/12/29 01:47:49;;;;;;;10.27;5.97;;;;;;;4.07;61.97;98483.09;4966913;28;20022;-69
2022/12/29 01:50:20;;;;;;;10.88;5.32;;;;;;;4.08;62.04;98479.31;4966696;28;20553;-68
2022/12/29 01:52:58;;;;;;;10.48;5.13;;;;;;;4.08;61.44;98468.44;4966964;28;20124;-69
2022/12/29 01:55:26;;;;;;;8.20;4.68;;;;;;;4.13;62.05;98454.09;4966213;28;20728;-69
2022/12/29 01:57:54;;;;;;;9.68;4.55;;;;;;;4.15;61.78;98432.97;4969171;28;20387;-69
2022/12/29 02:00:20;;;;;;;8.60;4.88;;;;;;;4.18;62.14;98432.44;4966292;28;20038;-69
2022/12/29 02:02:50;;;;;;;8.45;4.80;;;;;;;4.21;61.95;98429.22;4966434;28;20023;-69
2022/12/29 02:05:24;;;;;;;10.10;5.75;;;;;;;4.20;61.30;98441.16;4968044;28;20045;-69
2022/12/29 02:07:51;;;;;;;8.43;5.15;;;;;;;4.19;61.09;98439.53;4968485;28;20110;-69
2022/12/29 02:10:20;;;;;;;10.50;5.75;;;;;;;4.16;61.24;98440.88;4968221;28;20034;-69
2022/12/29 02:12:46;;;;;;;7.57;4.80;;;;;;;4.14;61.69;98432.16;4968083;28;20118;-69
2022/12/29 02:15:13;;;;;;;10.75;5.75;;;;;;;4.12;61.91;98423.44;4968208;28;20072;-69
2022/12/29 02:17:50;;;;;;;9.93;5.05;;;;;;;4.11;61.40;98435.38;4968323;28;20062;-69
2022/12/29 02:20:37;;;;;;;8.50;5.13;;;;;;;4.09;61.59;98439.41;4965399;28;20052;-70
2022/12/29 02:23:37;;;;;;;7.75;4.65;;;;;;;4.04;60.38;98426.59;4967010;28;20109;-69
2022/12/29 02:26:22;;;;;;;9.02;4.95;;;;;;;3.99;60.91;98419.25;4965386;28;20038;-69
2022/12/29 02:29:01;;;;;;;8.88;4.70;;;;;;;3.97;61.06;98429.53;4965514;28;20035;-68
2022/12/29 02:31:46;;;;;;;8.68;4.55;;;;;;;3.96;61.59;98443.34;4972475;28;20043;-69
2022/12/29 02:34:24;;;;;;;7.82;3.90;;;;;;;3.96;61.02;98446.88;4967005;28;20437;-68
2022/12/29 02:37:08;;;;;;;9.85;4.15;;;;;;;3.92;61.04;98440.31;4967963;28;20027;-69
2022/12/29 02:40:14;;;;;;;8.60;4.18;;;;;;;3.90;60.99;98428.91;4966430;28;20031;-69
2022/12/29 02:42:55;;;;;;;8.25;4.70;;;;;;;3.91;61.22;98427.00;4967135;28;20092;-69
2022/12/29 02:45:49;;;;;;;7.90;4.50;;;;;;;3.87;61.11;98426.69;4966763;28;20035;-68
2022/12/29 02:48:38;;;;;;;7.22;3.92;;;;;;;3.86;61.59;98436.72;4968123;28;20042;-68
2022/12/29 02:51:07;;;;;;;6.97;4.25;;;;;;;3.86;61.66;98434.03;4967536;28;20031;-68
2022/12/29 02:56:20;;;;;;;7.65;4.15;;;;;;;3.88;60.71;98437.28;4967355;28;20249;-69
2022/12/29 02:58:45;;;;;;;7.78;4.20;;;;;;;3.88;61.64;98426.41;4967806;28;20039;-68
2022/12/29 03:02:16;;;;;;;7.13;4.20;;;;;;;3.87;60.83;98415.84;4968928;28;20058;-68
2022/12/29 03:05:03;;;;;;;7.13;4.43;;;;;;;3.86;61.25;98414.19;4969248;28;20046;-69
2022/12/29 03:07:54;;;;;;;6.35;3.95;;;;;;;3.86;60.87;98423.16;4970957;28;20129;-69
2022/12/29 03:10:37;;;;;;;6.45;4.18;;;;;;;3.86;61.18;98416.91;4970276;28;20114;-69
2022/12/29 03:16:03;;;;;;;6.78;4.32;;;;;;;3.85;61.45;98398.97;4968914;28;20136;-69
2022/12/29 03:18:31;;;;;;;7.18;4.60;;;;;;;3.85;61.22;98402.53;4970194;28;20695;-70
2022/12/29 03:21:02;;;;;;;6.53;4.30;;;;;;;3.86;61.03;98400.63;4971459;28;20110;-69
2022/12/29 03:23:29;;;;;;;6.53;4.50;;;;;;;3.86;61.01;98415.03;4970916;28;20023;-69
2022/12/29 03:26:01;;;;;;;7.57;4.72;;;;;;;3.85;61.33;98412.56;4970854;28;20034;-69
2022/12/29 03:28:47;;;;;;;11.30;5.07;;;;;;;3.81;61.58;98414.97;4970630;28;20122;-69
2022/12/29 03:31:14;;;;;;;7.35;4.32;;;;;;;3.81;61.26;98412.25;4969825;28;20075;-69
2022/12/29 03:33:42;;;;;;;7.53;5.10;;;;;;;3.78;61.15;98407.31;4971106;28;20508;-69
2022/12/29 03:36:13;;;;;;;9.30;5.10;;;;;;;3.76;61.66;98404.03;4970715;28;20023;-69
2022/12/29 03:38:55;;;;;;;8.90;4.75;;;;;;;3.73;61.70;98401.84;4970806;28;20031;-69
2022/12/29 03:41:25;;;;;;;7.95;5.28;;;;;;;3.74;61.79;98389.91;4969436;28;20055;-70
2022/12/29 03:43:51;;;;;;;7.03;4.82;;;;;;;3.71;61.52;98385.78;4968165;28;20038;-69
2022/12/29 03:46:16;;;;;;;10.68;4.80;;;;;;;3.69;61.63;98387.94;4969669;28;20027;-69
2022/12/29 03:48:42;;;;;;;6.65;4.68;;;;;;;3.68;61.78;98377.34;4969983;28;20023;-69
2022/12/29 03:51:07;;;;;;;7.80;4.40;;;;;;;3.65;62.27;98378.69;4969259;28;20499;-69
2022/12/29 03:53:32;;;;;;;6.95;4.00;;;;;;;3.66;61.84;98379.50;4969204;28;20042;-70
2022/12/29 03:55:58;;;;;;;9.20;4.78;;;;;;;3.65;61.51;98367.00;4969458;28;20027;-69
2022/12/29 03:58:23;;;;;;;7.95;4.63;;;;;;;3.66;62.04;98363.22;4969443;28;20037;-69
2022/12/29 04:00:48;;;;;;;7.78;4.82;;;;;;;3.67;62.12;98362.97;4969978;28;20010;-70
2022/12/29 04:03:14;;;;;;;6.47;4.32;;;;;;;3.67;61.61;98367.59;4970284;28;20442;-70
2022/12/29 04:05:39;;;;;;;7.63;4.35;;;;;;;3.67;62.26;98354.03;4970204;28;20030;-69
2022/12/29 04:08:05;;;;;;;7.93;4.20;;;;;;;3.69;62.32;98360.00;4970161;28;20417;-69
2022/12/29 04:10:30;;;;;;;7.63;4.47;;;;;;;3.69;61.81;98354.59;4969174;28;20034;-69
2022/12/29 04:12:55;;;;;;;6.93;4.38;;;;;;;3.71;62.02;98349.72;4968012;28;20098;-70
2022/12/29 04:15:21;;;;;;;9.48;4.70;;;;;;;3.71;62.03;98352.44;4970172;28;20031;-69
2022/12/29 04:17:46;;;;;;;6.25;4.43;;;;;;;3.72;61.48;98351.38;4970494;28;20030;-70
2022/12/29 04:23:00;;;;;;;9.00;5.05;;;;;;;3.74;61.84;98360.06;4968539;28;20057;-69
2022/12/29 04:25:26;;;;;;;9.13;4.97;;;;;;;3.73;61.90;98344.88;4967977;28;20029;-69
2022/12/29 04:27:51;;;;;;;10.38;5.97;;;;;;;3.73;62.06;98348.38;4968845;28;20429;-69
2022/12/29 04:30:17;;;;;;;10.95;5.43;;;;;;;3.74;62.49;98354.66;4969713;28;20109;-69
2022/12/29 04:32:42;;;;;;;8.15;4.80;;;;;;;3.76;62.30;98346.25;4969997;28;20356;-70
2022/12/29 04:35:08;;;;;;;8.57;5.05;;;;;;;3.76;62.46;98340.81;4970596;28;20073;-70
2022/12/29 04:37:33;;;;;;;9.93;5.80;;;;;;;3.76;61.96;98333.50;4970170;28;20039;-69
2022/12/29 04:39:58;;;;;;;9.75;5.25;;;;;;;3.77;61.77;98339.75;4969699;28;20027;-69
2022/12/29 04:42:24;;;;;;;9.98;5.10;;;;;;;3.79;62.18;98338.44;4970253;28;20065;-69
2022/12/29 04:44:49;;;;;;;8.95;4.85;;;;;;;3.79;61.94;98338.44;4969733;28;20026;-70
2022/12/29 04:47:14;;;;;;;8.38;4.72;;;;;;;3.81;62.49;98341.72;4969842;28;20027;-69
2022/12/29 04:49:40;;;;;;;10.38;4.78;;;;;;;3.81;62.63;98339.00;4969907;28;20069;-69
2022/12/29 04:52:05;;;;;;;9.38;4.80;;;;;;;3.85;62.74;98336.59;4969359;28;20426;-70
2022/12/29 04:54:30;;;;;;;8.93;4.90;;;;;;;3.87;62.56;98340.66;4969175;28;20077;-70
2022/12/29 04:56:56;;;;;;;7.97;4.30;;;;;;;3.91;62.45;98332.03;4969404;28;20027;-69
2022/12/29 04:59:21;;;;;;;10.40;5.10;;;;;;;3.94;62.56;98329.63;4969626;28;20099;-69
2022/12/29 05:01:46;;;;;;;9.23;5.03;;;;;;;3.96;62.49;98327.47;4969250;28;20387;-70
2022/12/29 05:04:12;;;;;;;8.48;4.70;;;;;;;3.98;62.41;98316.34;4969598;28;20081;-70
2022/12/29 05:06:37;;;;;;;9.60;5.43;;;;;;;3.99;62.17;98323.41;4969419;28;20031;-69
2022/12/29 05:09:03;;;;;;;8.93;5.03;;;;;;;4.00;61.88;98311.50;4969392;28;20050;-69
2022/12/29 05:11:28;;;;;;;9.57;4.60;;;;;;;4.02;62.44;98325.63;4969027;28;20035;-68
2022/12/29 05:13:53;;;;;;;10.77;5.40;;;;;;;4.05;62.30;98330.53;4969319;28;20047;-70
2022/12/29 05:16:19;;;;;;;11.65;5.15;;;;;;;4.08;62.47;98329.19;4968122;28;20031;-69
2022/12/29 05:18:44;;;;;;;7.78;4.50;;;;;;;4.10;61.69;98338.75;4981187;28;20023;-69
2022/12/29 05:21:09;;;;;;;9.23;4.63;;;;;;;4.13;61.99;98343.66;4969289;28;20141;-69
2022/12/29 05:23:35;;;;;;;7.00;3.95;;;;;;;4.17;62.37;98343.94;4968338;28;20038;-69
2022/12/29 05:26:00;;;;;;;7.55;4.25;;;;;;;4.17;62.50;98336.63;4968832;28;20064;-69
2022/12/29 05:28:25;;;;;;;7.95;4.30;;;;;;;4.21;62.08;98331.50;4969737;28;20015;-69
2022/12/29 05:30:51;;;;;;;8.00;5.00;;;;;;;4.21;62.49;98328.78;4970641;28;20034;-68
2022/12/29 05:33:17;;;;;;;7.45;4.38;;;;;;;4.23;62.48;98326.63;4968517;28;20065;-70
2022/12/29 05:35:43;;;;;;;7.05;4.60;;;;;;;4.24;62.32;98344.56;4967148;28;20072;-69
2022/12/29 05:38:08;;;;;;;9.55;4.45;;;;;;;4.27;61.85;98348.69;4966762;28;20035;-70
2022/12/29 05:40:33;;;;;;;9.55;4.85;;;;;;;4.29;61.56;98355.47;4969941;28;20031;-70
2022/12/29 05:42:59;;;;;;;8.60;4.70;;;;;;;4.30;62.27;98359.81;4967108;28;20576;-69
2022/12/29 05:45:24;;;;;;;9.48;4.90;;;;;;;4.33;62.48;98358.47;4969874;28;20486;-70
2022/12/29 05:47:50;;;;;;;10.13;4.75;;;;;;;4.35;62.28;98360.97;4966557;28;20030;-70
2022/12/29 05:50:15;;;;;;;8.13;4.32;;;;;;;4.36;62.51;98349.81;4967702;28;20117;-69
2022/12/29 05:52:41;;;;;;;8.20;4.90;;;;;;;4.38;61.70;98352.28;4968768;28;20426;-69
2022/12/29 05:55:06;;;;;;;8.68;4.60;;;;;;;4.39;61.92;98340.34;4967369;28;20043;-69
2022/12/29 05:57:32;;;;;;;9.57;4.80;;;;;;;4.40;62.11;98340.09;4969530;28;20505;-69
2022/12/29 05:59:57;;;;;;;8.50;5.03;;;;;;;4.41;62.02;98338.22;4967669;28;20391;-70
2022/12/29 06:02:23;;;;;;;8.77;5.07;;;;;;;4.41;61.81;98330.84;4965185;28;20027;-69
2022/12/29 06:04:48;;;;;;;10.80;5.05;;;;;;;4.40;61.77;98325.69;4968404;28;20522;-70
2022/12/29 06:07:13;;;;;;;10.27;5.55;;;;;;;4.39;61.79;98319.44;4971924;28;20490;-70
2022/12/29 06:09:39;;;;;;;9.63;5.15;;;;;;;4.39;61.85;98302.34;4970064;28;20442;-69
2022/12/29 06:12:05;;;;;;;8.75;4.97;;;;;;;4.39;61.36;98295.00;4969476;28;20027;-68
2022/12/29 06:14:30;;;;;;;8.00;4.70;;;;;;;4.38;61.79;98293.38;4970314;28;20038;-69
2022/12/29 06:16:55;;;;;;;10.07;5.80;;;;;;;4.39;62.01;98305.06;4970179;28;20026;-70
2022/12/29 06:19:21;;;;;;;9.55;5.15;;;;;;;4.37;61.52;98301.78;4970266;28;20058;-70
2022/12/29 06:21:46;;;;;;;10.73;5.22;;;;;;;4.35;62.18;98302.03;4970449;28;20030;-69
2022/12/29 06:24:11;;;;;;;10.85;5.22;;;;;;;4.34;61.83;98305.81;4969058;28;20031;-69
2022/12/29 06:26:37;;;;;;;9.35;4.85;;;;;;;4.34;62.21;98310.44;4968262;28;20065;-70
2022/12/29 06:29:02;;;;;;;14.65;6.32;;;;;;;4.34;62.14;98324.81;4969744;28;20117;-70
2022/12/29 06:31:28;;;;;;;10.93;5.20;;;;;;;4.32;61.91;98326.97;5010829;28;20469;-69
2022/12/29 06:33:53;;;;;;;9.98;5.32;;;;;;;4.34;61.62;98318.59;5020575;28;20027;-69
2022/12/29 06:36:19;;;;;;;10.38;5.22;;;;;;;4.32;61.95;98318.84;5046952;28;20040;-69
2022/12/29 06:38:46;;;;;;;10.30;5.80;;;;;;;4.33;61.84;98323.19;5000137;28;20065;-69
2022/12/29 06:41:11;;;;;;;12.02;6.70;;;;;;;4.33;61.90;98320.47;4971538;28;20070;-69
2022/12/29 06:43:37;;;;;;;11.68;7.05;;;;;;;4.34;62.24;98330.25;4965139;28;20066;-70
2022/12/29 06:46:04;;;;;;;13.57;6.57;;;;;;;4.35;62.10;98326.47;4969363;28;20035;-69
2022/12/29 06:48:30;;;;;;;33.42;13.55;;;;;;;4.35;62.00;98303.94;4968768;28;20046;-69
2022/12/29 06:50:55;;;;;;;29.90;13.93;;;;;;;4.33;61.52;98298.75;4971825;28;20035;-69
2022/12/29 06:53:20;;;;;;;29.30;12.38;;;;;;;4.30;61.66;98301.97;4970854;28;20369;-69
2022/12/29 06:55:46;;;;;;;36.17;15.68;;;;;;;4.30;61.88;98299.25;4970305;28;20031;-68
2022/12/29 06:58:11;;;;;;;28.92;11.60;;;;;;;4.29;62.11;98303.88;4994892;28;20031;-69
2022/12/29 07:00:37;;;;;;;23.02;12.13;;;;;;;4.28;61.70;98294.09;4967002;28;20034;-69
2022/12/29 07:03:02;;;;;;;21.77;10.65;;;;;;;4.29;61.52;98300.34;4968968;28;20476;-69
2022/12/29 07:05:28;;;;;;;19.05;9.50;;;;;;;4.27;61.65;98297.09;5021690;28;20029;-70
2022/12/29 07:07:54;;;;;;;12.05;7.22;;;;;;;4.27;62.37;98308.75;4982385;28;20518;-69
2022/12/29 07:10:20;;;;;;;13.05;7.75;;;;;;;4.28;61.75;98313.13;4968820;28;20231;-69
2022/12/29 07:12:45;;;;;;;13.43;6.43;;;;;;;4.31;62.25;98326.16;4975460;28;20502;-69
2022/12/29 07:15:10;;;;;;;13.95;6.43;;;;;;;4.32;61.70;98335.13;4971058;28;20062;-69
2022/12/29 07:17:36;;;;;;;11.95;6.38;;;;;;;4.36;61.61;98349.03;4970726;28;20035;-68
2022/12/29 07:20:01;;;;;;;16.10;6.78;;;;;;;4.37;62.09;98347.94;4967964;28;20102;-67
2022/12/29 07:22:27;;;;;;;12.63;6.55;;;;;;;4.38;62.38;98352.28;4970468;28;20030;-68
2022/12/29 07:24:52;;;;;;;21.65;11.43;;;;;;;4.39;61.80;98348.50;4969893;28;20066;-68
2022/12/29 07:27:17;;;;;;;14.45;7.55;;;;;;;4.41;62.07;98352.59;4970313;28;20046;-68
2022/12/29 07:29:43;;;;;;;15.38;7.72;;;;;;;4.40;62.10;98344.72;4971523;28;20015;-67
2022/12/29 07:32:08;;;;;;;19.35;9.57;;;;;;;4.40;62.28;98361.00;4965061;28;20054;-67
2022/12/29 07:34:33;;;;;;;14.05;7.97;;;;;;;4.38;61.98;98347.66;4970572;28;20031;-70
2022/12/29 07:36:59;;;;;;;13.57;7.45;;;;;;;4.37;61.88;98340.59;4968004;28;20058;-68
2022/12/29 07:39:25;;;;;;;18.35;7.93;;;;;;;4.36;62.29;98338.16;4968471;28;20033;-68
2022/12/29 07:41:50;;;;;;;16.73;9.35;;;;;;;4.34;62.56;98324.81;4969766;28;20387;-67
2022/12/29 07:44:17;;;;;;;16.52;8.55;;;;;;;4.33;62.13;98312.31;4968404;28;20034;-69
2022/12/29 07:46:42;;;;;;;19.88;9.93;;;;;;;4.29;62.11;98322.06;4966616;28;20486;-70
2022/12/29 07:49:08;;;;;;;14.43;8.52;;;;;;;4.29;62.48;98319.34;5001348;28;20078;-69
2022/12/29 07:51:33;;;;;;;14.98;7.82;;;;;;;4.28;62.08;98325.88;5020644;28;20027;-69
2022/12/29 07:54:00;;;;;;;15.20;7.97;;;;;;;4.26;62.10;98333.47;4969270;28;20062;-69
2022/12/29 07:56:25;;;;;;;17.33;9.30;;;;;;;4.27;62.08;98330.47;4969336;28;20030;-67
2022/12/29 07:58:51;;;;;;;18.63;9.77;;;;;;;4.27;62.09;98321.53;4970246;28;20041;-68
2022/12/29 08:01:16;;;;;;;12.73;8.32;;;;;;;4.25;62.22;98321.78;4971376;28;20445;-67
2022/12/29 08:03:41;;;;;;;14.98;8.57;;;;;;;4.27;62.08;98335.91;4968337;28;20023;-68
2022/12/29 08:06:09;;;;;;;15.18;8.05;;;;;;;4.23;62.49;98336.69;4967595;28;20059;-68
2022/12/29 08:08:35;;;;;;;16.33;7.75;;;;;;;4.23;62.48;98340.22;4981045;28;20019;-68
2022/12/29 08:11:00;;;;;;;18.70;9.63;;;;;;;4.23;62.76;98328.53;4972562;28;20561;-69
2022/12/29 08:13:25;;;;;;;17.58;9.85;;;;;;;4.22;63.03;98319.56;4980963;28;20023;-69
2022/12/29 08:15:51;;;;;;;16.70;9.38;;;;;;;4.23;62.40;98318.50;5005541;28;20107;-69
2022/12/29 08:18:16;;;;;;;22.02;12.05;;;;;;;4.26;62.31;98325.31;4968718;28;20054;-69
2022/12/29 08:20:41;;;;;;;20.95;10.38;;;;;;;4.26;62.14;98323.41;4969234;28;20115;-70
2022/12/29 08:23:07;;;;;;;20.25;9.43;;;;;;;4.27;62.66;98325.03;4969691;28;20030;-69
2022/12/29 08:25:32;;;;;;;21.33;9.82;;;;;;;4.27;62.77;98319.63;4969499;28;20026;-69
2022/12/29 08:27:58;;;;;;;16.98;9.30;;;;;;;4.29;62.48;98331.03;4974364;28;20030;-68
2022/12/29 08:30:23;;;;;;;18.60;9.32;;;;;;;4.27;62.46;98338.63;4974166;28;20027;-69
2022/12/29 08:32:49;;;;;;;14.57;7.53;;;;;;;4.29;62.79;98341.91;4971085;28;20018;-69
2022/12/29 08:35:14;;;;;;;15.82;8.43;;;;;;;4.29;62.49;98349.22;5002749;28;20426;-69
2022/12/29 08:37:39;;;;;;;14.45;7.50;;;;;;;4.29;62.37;98346.50;4969781;28;20030;-69
2022/12/29 08:40:06;;;;;;;17.08;9.45;;;;;;;4.30;62.90;98334.56;4981814;28;20027;-69
2022/12/29 08:42:32;;;;;;;14.45;8.63;;;;;;;4.30;62.56;98340.00;4971170;28;20076;-69
2022/12/29 08:45:00;;;;;;;18.23;9.13;;;;;;;4.27;62.86;98343.25;4970525;28;20364;-69
2022/12/29 08:47:27;;;;;;;14.65;7.50;;;;;;;4.27;63.27;98344.06;4982599;28;20054;-68
2022/12/29 08:49:52;;;;;;;16.67;8.95;;;;;;;4.28;62.56;98342.97;4968676;28;20070;-68
2022/12/29 08:52:18;;;;;;;14.43;8.45;;;;;;;4.29;62.74;98336.47;4963590;28;20055;-68
2022/12/29 08:54:43;;;;;;;29.42;14.38;;;;;;;4.30;63.08;98338.09;4966453;28;20035;-69
2022/12/29 08:57:09;;;;;;;25.63;13.07;;;;;;;4.30;62.79;98345.41;4970633;28;20034;-68
2022/12/29 08:59:34;;;;;;;23.60;11.80;;;;;;;4.34;63.27;98351.97;4999423;28;20023;-69
2022/12/29 09:02:01;;;;;;;18.60;10.07;;;;;;;4.37;63.75;98351.47;4996143;28;20023;-69
2022/12/29 09:04:27;;;;;;;23.27;12.18;;;;;;;4.43;63.89;98350.44;5026351;28;20022;-69
2022/12/29 09:06:53;;;;;;;21.63;10.02;;;;;;;4.53;63.37;98365.19;4985243;28;20031;-68
2022/12/29 09:09:19;;;;;;;17.63;8.43;;;;;;;4.61;63.45;98367.44;4968658;28;20027;-69
2022/12/29 09:11:45;;;;;;;19.38;8.68;;;;;;;4.70;62.83;98365.84;4969055;28;20105;-68
2022/12/29 09:14:11;;;;;;;15.40;8.68;;;;;;;4.80;62.73;98372.44;4969860;28;20795;-67
2022/12/29 09:16:37;;;;;;;15.10;8.43;;;;;;;4.90;63.19;98358.94;4969420;28;20050;-68
2022/12/29 09:19:03;;;;;;;16.98;9.25;;;;;;;4.99;63.18;98349.22;4966531;28;20533;-68
2022/12/29 09:21:28;;;;;;;15.95;8.18;;;;;;;5.09;63.00;98342.22;4969281;28;20040;-68
2022/12/29 09:23:54;;;;;;;13.98;7.75;;;;;;;5.18;63.05;98343.34;4970032;28;20025;-67
2022/12/29 09:26:19;;;;;;;15.25;8.32;;;;;;;5.29;62.59;98336.88;4970378;28;20058;-67
2022/12/29 09:28:45;;;;;;;16.33;8.15;;;;;;;5.42;63.11;98351.88;4970127;28;20023;-67
2022/12/29 09:31:10;;;;;;;18.08;8.25;;;;;;;5.52;62.42;98353.81;4970220;28;20023;-68
2022/12/29 09:33:36;;;;;;;13.55;8.02;;;;;;;5.61;62.44;98362.31;4971664;28;20027;-67
2022/12/29 09:36:02;;;;;;;15.02;8.13;;;;;;;5.71;62.05;98366.97;4991123;28;20522;-67
2022/12/29 09:38:28;;;;;;;17.38;8.88;;;;;;;5.80;62.62;98357.22;4968840;28;20031;-67
2022/12/29 09:41:15;;;;;;;15.48;7.35;;;;;;;5.87;62.01;98360.50;4967832;28;20467;-67
2022/12/29 09:44:10;;;;;;;16.75;8.10;;;;;;;5.94;62.67;98361.03;4969343;28;20047;-68
2022/12/29 09:46:44;;;;;;;16.75;8.98;;;;;;;6.02;62.26;98367.91;5003398;28;20065;-67
2022/12/29 09:49:19;;;;;;;15.65;8.20;;;;;;;6.06;62.08;98351.84;5037253;28;20032;-67
2022/12/29 09:51:50;;;;;;;14.65;8.02;;;;;;;6.09;61.71;98352.16;4980255;28;20544;-67
2022/12/29 09:54:27;;;;;;;18.92;7.85;;;;;;;6.13;61.15;98352.41;5035273;28;20522;-66
2022/12/29 09:56:55;;;;;;;16.35;8.25;;;;;;;6.16;61.50;98349.16;4986482;28;20109;-67
2022/12/29 09:59:26;;;;;;;14.88;8.07;;;;;;;6.22;61.21;98350.81;4991616;28;20108;-67
2022/12/29 10:02:01;;;;;;;17.48;8.82;;;;;;;6.28;61.34;98334.47;5032619;28;20029;-67
2022/12/29 10:04:27;;;;;;;15.13;8.30;;;;;;;6.33;61.39;98332.56;5032890;28;20026;-66
2022/12/29 10:07:26;;;;;;;15.95;8.50;;;;;;;6.43;61.53;98336.38;4969245;28;20467;-66
2022/12/29 10:10:10;;;;;;;14.63;8.25;;;;;;;6.53;61.62;98328.19;4967873;28;20058;-67
2022/12/29 10:12:47;;;;;;;15.57;7.45;;;;;;;6.61;61.29;98314.03;4969400;28;20031;-67
2022/12/29 10:15:40;;;;;;;13.13;7.72;;;;;;;6.68;61.45;98311.03;4968949;28;20391;-67
2022/12/29 10:18:05;;;;;;;14.15;7.53;;;;;;;6.76;61.24;98304.22;4967987;28;20031;-68
2022/12/29 10:20:57;;;;;;;14.05;7.85;;;;;;;6.84;61.19;98300.94;4963360;28;20380;-68
2022/12/29 10:23:45;;;;;;;15.07;7.93;;;;;;;6.92;60.83;98288.63;4967857;28;20114;-68
2022/12/29 10:26:18;;;;;;;14.65;8.18;;;;;;;6.99;60.57;98289.16;4966305;28;20122;-67
2022/12/29 10:29:20;;;;;;;15.98;7.78;;;;;;;7.05;60.79;98292.69;4969025;28;20037;-68
2022/12/29 10:31:45;;;;;;;15.05;9.65;;;;;;;7.17;60.23;98289.66;4971782;28;20411;-71
2022/12/29 10:34:24;;;;;;;16.63;8.60;;;;;;;7.24;60.58;98290.16;4970994;28;20035;-68
2022/12/29 10:36:59;;;;;;;16.55;8.25;;;;;;;7.30;60.23;98292.63;4969502;28;20125;-67
2022/12/29 10:39:45;;;;;;;14.20;7.70;;;;;;;7.37;60.07;98292.31;4967401;28;21724;-67
2022/12/29 10:42:37;;;;;;;15.90;8.80;;;;;;;7.43;60.42;98298.56;4967567;28;20475;-67
2022/12/29 10:45:04;;;;;;;19.00;9.38;;;;;;;7.49;60.46;98297.44;4966192;28;20037;-67
2022/12/29 10:47:35;;;;;;;17.05;10.05;;;;;;;7.56;60.05;98295.22;4962237;28;20499;-67
2022/12/29 10:50:02;;;;;;;12.00;7.40;;;;;;;7.65;60.14;98291.91;4966483;28;20052;-68
2022/12/29 10:52:28;;;;;;;17.40;9.60;;;;;;;7.70;59.75;98284.50;4967893;28;20037;-68
2022/12/29 10:54:59;;;;;;;14.82;8.00;;;;;;;7.77;60.21;98288.84;5003351;28;21477;-69
2022/12/29 10:57:27;;;;;;;17.23;8.65;;;;;;;7.83;59.79;98285.00;4966339;28;20035;-67
2022/12/29 10:59:53;;;;;;;20.40;10.95;;;;;;;7.89;59.33;98287.41;4966758;28;20091;-67
2022/12/29 11:02:18;;;;;;;18.35;9.60;;;;;;;7.93;59.11;98287.66;4967437;28;20531;-67
2022/12/29 11:04:52;;;;;;;20.58;11.85;;;;;;;7.97;59.31;98287.91;4966671;28;20030;-67
2022/12/29 11:07:19;;;;;;;18.92;11.52;;;;;;;8.04;59.40;98286.47;4968153;28;20027;-67
2022/12/29 11:09:45;;;;;;;16.83;10.10;;;;;;;8.10;58.90;98289.19;4983782;28;20274;-67
2022/12/29 11:12:21;;;;;;;16.55;9.13;;;;;;;8.11;59.13;98288.91;5002793;28;20563;-67
2022/12/29 11:14:59;;;;;;;21.30;14.15;;;;;;;8.16;59.01;98288.03;4967138;28;20391;-67
2022/12/29 11:17:24;;;;;;;14.43;8.52;;;;;;;8.19;59.15;98277.34;5009719;28;20045;-67
2022/12/29 11:19:50;;;;;;;13.60;7.95;;;;;;;8.25;59.17;98286.34;5067374;28;20608;-67
2022/12/29 11:22:22;;;;;;;18.50;8.77;;;;;;;8.28;59.50;98274.84;4975922;28;20075;-67
2022/12/29 11:24:51;;;;;;;13.35;8.10;;;;;;;8.32;58.88;98275.06;4971330;28;20054;-67
2022/12/29 11:27:22;;;;;;;14.30;8.02;;;;;;;8.33;58.59;98277.53;4968073;28;20597;-67
2022/12/29 11:29:50;;;;;;;14.95;7.80;;;;;;;8.34;57.77;98276.44;4972274;28;20169;-66
2022/12/29 11:32:26;;;;;;;13.27;7.95;;;;;;;8.33;58.26;98285.72;4993032;28;20042;-64
2022/12/29 11:34:52;;;;;;;13.52;7.38;;;;;;;8.34;58.08;98281.06;4975244;28;20039;-67
2022/12/29 11:37:39;;;;;;;14.95;7.50;;;;;;;8.32;58.28;98270.44;4987474;28;20039;-68
2022/12/29 11:40:14;;;;;;;12.77;7.60;;;;;;;8.36;58.06;98278.88;4975620;28;20149;-67
2022/12/29 11:42:47;;;;;;;13.10;7.63;;;;;;;8.37;58.08;98272.31;5037734;28;20048;-69
2022/12/29 11:45:21;;;;;;;14.88;9.70;;;;;;;8.35;58.23;98266.31;4967821;28;20498;-67
2022/12/29 11:47:50;;;;;;;16.83;10.98;;;;;;;8.34;58.35;98260.03;4964322;28;20015;-67
2022/12/29 11:50:25;;;;;;;18.67;9.55;;;;;;;8.38;58.41;98256.72;4969106;28;20521;-67
2022/12/29 11:52:59;;;;;;;16.17;8.93;;;;;;;8.38;58.12;98248.50;4970905;28;20117;-67
2022/12/29 11:55:26;;;;;;;17.90;9.43;;;;;;;8.39;58.33;98255.59;4968226;28;20137;-67
2022/12/29 11:57:54;;;;;;;18.65;10.40;;;;;;;8.38;58.38;98267.63;4968682;28;20046;-68
2022/12/29 12:00:24;;;;;;;17.60;11.05;;;;;;;8.35;58.18;98272.56;4969646;28;20034;-67
2022/12/29 12:02:56;;;;;;;15.38;8.88;;;;;;;8.31;58.01;98276.19;4970925;28;20072;-68
2022/12/29 12:05:31;;;;;;;21.40;10.75;;;;;;;8.30;58.81;98280.00;4971301;28;20122;-67
2022/12/29 12:08:19;;;;;;;22.13;10.63;;;;;;;8.29;58.50;98281.94;4971058;28;20029;-68
2022/12/29 12:10:53;;;;;;;13.52;7.93;;;;;;;8.27;58.65;98295.06;4965052;28;20023;-68
2022/12/29 12:13:31;;;;;;;19.02;8.45;;;;;;;8.25;58.22;98285.50;4970457;28;20053;-68
2022/12/29 12:16:21;;;;;;;15.68;8.02;;;;;;;8.26;58.78;98285.25;4971254;28;20031;-67
2022/12/29 12:19:13;;;;;;;12.40;7.18;;;;;;;8.28;58.54;98280.31;4968696;28;20039;-65
2022/12/29 12:21:42;;;;;;;15.23;7.90;;;;;;;8.32;57.42;98266.88;4981504;28;20027;-68
2022/12/29 12:24:18;;;;;;;13.68;7.38;;;;;;;8.31;58.02;98260.63;5026941;28;20026;-68